sensor_id;sensor_type;location;lat;lon;timestamp;P1;durP1;ratioP1;P2;durP2;ratioP2
20535;SDS011;10426;49.420;8.390;2023-07-31T00:01:16;2.80;;;1.55;;
20535;SDS011;10426;49.420;8.390;2023-07-31T00:03:42;2.53;;;1.70;;
20535;SDS011;10426;49.420;8.390;2023-07-31T00:06:09;1.95;;;1.50;;
20535;SDS011;10426;49.420;8.390;2023-07-31T00:08:36;3.25;;;1.60;;
20535;SDS011;10426;49.420;8.390;2023-07-31T00:11:02;2.33;;;1.48;;
20535;SDS011;10426;49.420;8.390;2023-07-31T00:13:30;2.70;;;1.70;;
20535;SDS011;10426;49.420;8.390;2023-07-31T00:15:57;2.78;;;1.58;;
20535;SDS011;10426;49.420;8.390;2023-07-31T00:18:23;2.80;;;1.80;;
20535;SDS011;10426;49.420;8.390;2023-07-31T00:20:50;3.50;;;1.80;;
20535;SDS011;10426;49.420;8.390;2023-07-31T00:23:17;5.35;;;1.83;;
20535;SDS011;10426;49.420;8.390;2023-07-31T00:25:43;2.38;;;2.00;;
20535;SDS011;10426;49.420;8.390;2023-07-31T00:28:10;4.32;;;1.50;;
20535;SDS011;10426;49.420;8.390;2023-07-31T00:30:38;3.70;;;1.65;;
20535;SDS011;10426;49.420;8.390;2023-07-31T00:33:04;3.75;;;1.90;;
20535;SDS011;10426;49.420;8.390;2023-07-31T00:35:31;2.13;;;1.60;;
20535;SDS011;10426;49.420;8.390;2023-07-31T00:37:58;2.20;;;1.60;;
20535;SDS011;10426;49.420;8.390;2023-07-31T00:40:24;3.20;;;1.57;;
20535;SDS011;10426;49.420;8.390;2023-07-31T00:42:51;2.08;;;1.35;;
20535;SDS011;10426;49.420;8.390;2023-07-31T00:45:18;1.95;;;1.50;;
20535;SDS011;10426;49.420;8.390;2023-07-31T00:47:46;4.13;;;1.70;;
20535;SDS011;10426;49.420;8.390;2023-07-31T00:50:12;2.33;;;1.48;;
20535;SDS011;10426;49.420;8.390;2023-07-31T00:52:40;2.30;;;1.70;;
20535;SDS011;10426;49.420;8.390;2023-07-31T00:55:06;2.67;;;1.42;;
20535;SDS011;10426;49.420;8.390;2023-07-31T00:57:33;3.25;;;1.50;;
20535;SDS011;10426;49.420;8.390;2023-07-31T01:00:01;2.53;;;1.47;;
20535;SDS011;10426;49.420;8.390;2023-07-31T01:02:28;2.40;;;1.50;;
20535;SDS011;10426;49.420;8.390;2023-07-31T01:04:56;2.15;;;1.55;;
20535;SDS011;10426;49.420;8.390;2023-07-31T01:07:25;2.90;;;1.48;;
20535;SDS011;10426;49.420;8.390;2023-07-31T01:10:02;5.38;;;1.50;;
20535;SDS011;10426;49.420;8.390;2023-07-31T01:12:29;2.95;;;1.85;;
20535;SDS011;10426;49.420;8.390;2023-07-31T01:15:04;3.10;;;1.63;;
20535;SDS011;10426;49.420;8.390;2023-07-31T01:17:31;2.55;;;1.52;;
20535;SDS011;10426;49.420;8.390;2023-07-31T01:20:01;3.20;;;1.90;;
20535;SDS011;10426;49.420;8.390;2023-07-31T01:22:36;1.63;;;1.45;;
20535;SDS011;10426;49.420;8.390;2023-07-31T01:25:10;3.58;;;1.70;;
20535;SDS011;10426;49.420;8.390;2023-07-31T01:27:43;2.92;;;1.42;;
20535;SDS011;10426;49.420;8.390;2023-07-31T01:30:11;4.03;;;1.70;;
20535;SDS011;10426;49.420;8.390;2023-07-31T01:32:40;3.13;;;1.60;;
20535;SDS011;10426;49.420;8.390;2023-07-31T01:35:07;3.00;;;1.73;;
20535;SDS011;10426;49.420;8.390;2023-07-31T01:37:34;3.97;;;1.63;;
20535;SDS011;10426;49.420;8.390;2023-07-31T01:40:01;2.97;;;1.60;;
20535;SDS011;10426;49.420;8.390;2023-07-31T01:42:27;3.40;;;1.63;;
20535;SDS011;10426;49.420;8.390;2023-07-31T01:44:55;3.45;;;1.80;;
20535;SDS011;10426;49.420;8.390;2023-07-31T01:47:22;3.90;;;1.75;;
20535;SDS011;10426;49.420;8.390;2023-07-31T01:49:49;3.57;;;2.00;;
20535;SDS011;10426;49.420;8.390;2023-07-31T01:52:15;2.45;;;1.77;;
20535;SDS011;10426;49.420;8.390;2023-07-31T01:54:42;6.35;;;2.10;;
20535;SDS011;10426;49.420;8.390;2023-07-31T01:57:09;4.18;;;1.73;;
20535;SDS011;10426;49.420;8.390;2023-07-31T01:59:35;2.80;;;1.70;;
20535;SDS011;10426;49.420;8.390;2023-07-31T02:02:04;2.40;;;1.77;;
20535;SDS011;10426;49.420;8.390;2023-07-31T02:04:30;2.67;;;1.70;;
20535;SDS011;10426;49.420;8.390;2023-07-31T02:06:57;3.08;;;2.00;;
20535;SDS011;10426;49.420;8.390;2023-07-31T02:09:24;6.73;;;2.30;;
20535;SDS011;10426;49.420;8.390;2023-07-31T02:11:50;2.65;;;1.75;;
20535;SDS011;10426;49.420;8.390;2023-07-31T02:14:17;4.00;;;1.83;;
20535;SDS011;10426;49.420;8.390;2023-07-31T02:16:43;3.75;;;2.10;;
20535;SDS011;10426;49.420;8.390;2023-07-31T02:19:11;3.22;;;1.80;;
20535;SDS011;10426;49.420;8.390;2023-07-31T02:21:38;3.95;;;1.98;;
20535;SDS011;10426;49.420;8.390;2023-07-31T02:24:05;2.63;;;1.60;;
20535;SDS011;10426;49.420;8.390;2023-07-31T02:26:31;4.72;;;1.83;;
20535;SDS011;10426;49.420;8.390;2023-07-31T02:28:58;2.63;;;1.80;;
20535;SDS011;10426;49.420;8.390;2023-07-31T02:31:24;3.22;;;1.70;;
20535;SDS011;10426;49.420;8.390;2023-07-31T02:33:51;2.77;;;1.60;;
20535;SDS011;10426;49.420;8.390;2023-07-31T02:36:19;2.30;;;1.65;;
20535;SDS011;10426;49.420;8.390;2023-07-31T02:38:46;2.67;;;1.77;;
20535;SDS011;10426;49.420;8.390;2023-07-31T02:41:12;3.50;;;1.70;;
20535;SDS011;10426;49.420;8.390;2023-07-31T02:43:39;2.95;;;1.60;;
20535;SDS011;10426;49.420;8.390;2023-07-31T02:46:06;1.90;;;1.47;;
20535;SDS011;10426;49.420;8.390;2023-07-31T02:48:32;3.13;;;1.80;;
20535;SDS011;10426;49.420;8.390;2023-07-31T02:50:59;4.20;;;1.50;;
20535;SDS011;10426;49.420;8.390;2023-07-31T02:53:27;4.30;;;1.77;;
20535;SDS011;10426;49.420;8.390;2023-07-31T02:55:54;4.40;;;1.80;;
20535;SDS011;10426;49.420;8.390;2023-07-31T02:58:20;3.10;;;1.90;;
20535;SDS011;10426;49.420;8.390;2023-07-31T03:00:47;2.92;;;1.60;;
20535;SDS011;10426;49.420;8.390;2023-07-31T03:03:13;2.95;;;1.70;;
20535;SDS011;10426;49.420;8.390;2023-07-31T03:05:40;1.60;;;1.50;;
20535;SDS011;10426;49.420;8.390;2023-07-31T03:08:07;3.30;;;1.80;;
20535;SDS011;10426;49.420;8.390;2023-07-31T03:10:35;3.78;;;1.63;;
20535;SDS011;10426;49.420;8.390;2023-07-31T03:13:01;1.80;;;1.70;;
20535;SDS011;10426;49.420;8.390;2023-07-31T03:15:28;3.22;;;1.60;;
20535;SDS011;10426;49.420;8.390;2023-07-31T03:17:54;1.80;;;1.57;;
20535;SDS011;10426;49.420;8.390;2023-07-31T03:20:21;3.55;;;1.90;;
20535;SDS011;10426;49.420;8.390;2023-07-31T03:22:48;2.90;;;1.63;;
20535;SDS011;10426;49.420;8.390;2023-07-31T03:25:14;2.33;;;1.50;;
20535;SDS011;10426;49.420;8.390;2023-07-31T03:27:42;2.22;;;1.60;;
20535;SDS011;10426;49.420;8.390;2023-07-31T03:30:09;3.72;;;1.80;;
20535;SDS011;10426;49.420;8.390;2023-07-31T03:32:36;3.33;;;1.73;;
20535;SDS011;10426;49.420;8.390;2023-07-31T03:35:03;3.15;;;1.80;;
20535;SDS011;10426;49.420;8.390;2023-07-31T03:37:30;4.00;;;2.10;;
20535;SDS011;10426;49.420;8.390;2023-07-31T03:39:57;1.95;;;1.67;;
20535;SDS011;10426;49.420;8.390;2023-07-31T03:42:24;3.30;;;1.93;;
20535;SDS011;10426;49.420;8.390;2023-07-31T03:44:52;3.55;;;1.70;;
20535;SDS011;10426;49.420;8.390;2023-07-31T03:47:18;3.05;;;1.70;;
20535;SDS011;10426;49.420;8.390;2023-07-31T03:49:45;4.13;;;1.75;;
20535;SDS011;10426;49.420;8.390;2023-07-31T03:52:11;4.15;;;1.75;;
20535;SDS011;10426;49.420;8.390;2023-07-31T03:54:38;5.82;;;1.90;;
20535;SDS011;10426;49.420;8.390;2023-07-31T03:57:05;2.63;;;2.10;;
20535;SDS011;10426;49.420;8.390;2023-07-31T03:59:32;3.10;;;1.75;;
20535;SDS011;10426;49.420;8.390;2023-07-31T04:02:00;3.05;;;1.75;;
20535;SDS011;10426;49.420;8.390;2023-07-31T04:04:26;3.00;;;1.92;;
20535;SDS011;10426;49.420;8.390;2023-07-31T04:06:53;2.27;;;1.70;;
20535;SDS011;10426;49.420;8.390;2023-07-31T04:09:19;3.47;;;1.90;;
20535;SDS011;10426;49.420;8.390;2023-07-31T04:11:46;3.70;;;1.90;;
20535;SDS011;10426;49.420;8.390;2023-07-31T04:14:13;2.67;;;1.70;;
20535;SDS011;10426;49.420;8.390;2023-07-31T04:16:39;4.00;;;1.93;;
20535;SDS011;10426;49.420;8.390;2023-07-31T04:19:07;3.00;;;1.80;;
20535;SDS011;10426;49.420;8.390;2023-07-31T04:21:35;3.05;;;1.98;;
20535;SDS011;10426;49.420;8.390;2023-07-31T04:24:02;2.80;;;1.60;;
20535;SDS011;10426;49.420;8.390;2023-07-31T04:26:29;3.53;;;2.00;;
20535;SDS011;10426;49.420;8.390;2023-07-31T04:28:56;3.25;;;1.80;;
20535;SDS011;10426;49.420;8.390;2023-07-31T04:31:22;2.65;;;1.80;;
20535;SDS011;10426;49.420;8.390;2023-07-31T04:33:49;1.70;;;1.60;;
20535;SDS011;10426;49.420;8.390;2023-07-31T04:36:17;3.70;;;1.87;;
20535;SDS011;10426;49.420;8.390;2023-07-31T04:38:43;3.00;;;1.65;;
20535;SDS011;10426;49.420;8.390;2023-07-31T04:41:10;3.85;;;2.05;;
20535;SDS011;10426;49.420;8.390;2023-07-31T04:43:37;2.90;;;1.85;;
20535;SDS011;10426;49.420;8.390;2023-07-31T04:46:04;5.47;;;1.90;;
20535;SDS011;10426;49.420;8.390;2023-07-31T04:48:31;3.72;;;1.90;;
20535;SDS011;10426;49.420;8.390;2023-07-31T04:50:57;3.23;;;1.93;;
20535;SDS011;10426;49.420;8.390;2023-07-31T04:53:25;2.80;;;1.92;;
20535;SDS011;10426;49.420;8.390;2023-07-31T04:55:52;3.55;;;1.80;;
20535;SDS011;10426;49.420;8.390;2023-07-31T04:58:18;2.75;;;2.00;;
20535;SDS011;10426;49.420;8.390;2023-07-31T05:00:45;4.07;;;1.90;;
20535;SDS011;10426;49.420;8.390;2023-07-31T05:03:12;2.90;;;2.00;;
20535;SDS011;10426;49.420;8.390;2023-07-31T05:05:38;4.55;;;1.83;;
20535;SDS011;10426;49.420;8.390;2023-07-31T05:08:05;2.90;;;1.90;;
20535;SDS011;10426;49.420;8.390;2023-07-31T05:10:33;3.25;;;1.95;;
20535;SDS011;10426;49.420;8.390;2023-07-31T05:13:00;3.83;;;1.80;;
20535;SDS011;10426;49.420;8.390;2023-07-31T05:15:26;2.65;;;1.88;;
20535;SDS011;10426;49.420;8.390;2023-07-31T05:17:53;4.18;;;2.00;;
20535;SDS011;10426;49.420;8.390;2023-07-31T05:20:20;3.00;;;1.90;;
20535;SDS011;10426;49.420;8.390;2023-07-31T05:22:46;2.88;;;1.67;;
20535;SDS011;10426;49.420;8.390;2023-07-31T05:25:13;3.23;;;1.87;;
20535;SDS011;10426;49.420;8.390;2023-07-31T05:27:41;4.03;;;1.80;;
20535;SDS011;10426;49.420;8.390;2023-07-31T05:30:08;2.53;;;1.75;;
20535;SDS011;10426;49.420;8.390;2023-07-31T05:32:35;2.58;;;1.80;;
20535;SDS011;10426;49.420;8.390;2023-07-31T05:35:01;2.65;;;2.00;;
20535;SDS011;10426;49.420;8.390;2023-07-31T05:37:28;3.35;;;1.90;;
20535;SDS011;10426;49.420;8.390;2023-07-31T05:39:54;3.38;;;1.70;;
20535;SDS011;10426;49.420;8.390;2023-07-31T05:42:21;2.28;;;1.85;;
20535;SDS011;10426;49.420;8.390;2023-07-31T05:44:49;3.33;;;1.70;;
20535;SDS011;10426;49.420;8.390;2023-07-31T05:47:16;3.50;;;1.80;;
20535;SDS011;10426;49.420;8.390;2023-07-31T05:49:43;4.45;;;1.80;;
20535;SDS011;10426;49.420;8.390;2023-07-31T05:52:10;2.40;;;1.80;;
20535;SDS011;10426;49.420;8.390;2023-07-31T05:54:36;4.90;;;1.90;;
20535;SDS011;10426;49.420;8.390;2023-07-31T05:57:03;3.37;;;1.90;;
20535;SDS011;10426;49.420;8.390;2023-07-31T05:59:30;3.63;;;1.90;;
20535;SDS011;10426;49.420;8.390;2023-07-31T06:01:59;2.97;;;1.90;;
20535;SDS011;10426;49.420;8.390;2023-07-31T06:04:26;2.30;;;2.10;;
20535;SDS011;10426;49.420;8.390;2023-07-31T06:06:53;6.57;;;2.38;;
20535;SDS011;10426;49.420;8.390;2023-07-31T06:09:20;4.50;;;2.03;;
20535;SDS011;10426;49.420;8.390;2023-07-31T06:11:47;3.40;;;1.92;;
20535;SDS011;10426;49.420;8.390;2023-07-31T06:14:14;6.07;;;2.10;;
20535;SDS011;10426;49.420;8.390;2023-07-31T06:16:40;3.88;;;2.30;;
20535;SDS011;10426;49.420;8.390;2023-07-31T06:19:08;3.53;;;2.20;;
20535;SDS011;10426;49.420;8.390;2023-07-31T06:21:35;4.07;;;2.07;;
20535;SDS011;10426;49.420;8.390;2023-07-31T06:24:02;6.20;;;2.67;;
20535;SDS011;10426;49.420;8.390;2023-07-31T06:26:29;4.60;;;2.03;;
20535;SDS011;10426;49.420;8.390;2023-07-31T06:28:56;4.55;;;2.05;;
20535;SDS011;10426;49.420;8.390;2023-07-31T06:31:22;3.13;;;2.08;;
20535;SDS011;10426;49.420;8.390;2023-07-31T06:33:49;3.05;;;2.00;;
20535;SDS011;10426;49.420;8.390;2023-07-31T06:36:17;2.75;;;1.83;;
20535;SDS011;10426;49.420;8.390;2023-07-31T06:38:44;3.03;;;1.80;;
20535;SDS011;10426;49.420;8.390;2023-07-31T06:41:10;3.90;;;1.90;;
20535;SDS011;10426;49.420;8.390;2023-07-31T06:43:37;4.18;;;2.00;;
20535;SDS011;10426;49.420;8.390;2023-07-31T06:46:04;3.77;;;2.20;;
20535;SDS011;10426;49.420;8.390;2023-07-31T06:48:31;2.88;;;2.00;;
20535;SDS011;10426;49.420;8.390;2023-07-31T06:50:57;3.58;;;1.92;;
20535;SDS011;10426;49.420;8.390;2023-07-31T06:53:26;3.70;;;2.00;;
20535;SDS011;10426;49.420;8.390;2023-07-31T06:55:52;3.08;;;1.90;;
20535;SDS011;10426;49.420;8.390;2023-07-31T06:58:20;2.72;;;1.80;;
20535;SDS011;10426;49.420;8.390;2023-07-31T07:00:47;3.63;;;2.08;;
20535;SDS011;10426;49.420;8.390;2023-07-31T07:03:14;3.40;;;1.90;;
20535;SDS011;10426;49.420;8.390;2023-07-31T07:05:41;2.85;;;1.98;;
20535;SDS011;10426;49.420;8.390;2023-07-31T07:08:08;4.05;;;1.92;;
20535;SDS011;10426;49.420;8.390;2023-07-31T07:10:36;3.28;;;1.92;;
20535;SDS011;10426;49.420;8.390;2023-07-31T07:13:03;3.20;;;1.98;;
20535;SDS011;10426;49.420;8.390;2023-07-31T07:15:30;5.07;;;2.40;;
20535;SDS011;10426;49.420;8.390;2023-07-31T07:17:56;5.90;;;3.73;;
20535;SDS011;10426;49.420;8.390;2023-07-31T07:20:23;3.97;;;2.10;;
20535;SDS011;10426;49.420;8.390;2023-07-31T07:22:49;4.20;;;2.30;;
20535;SDS011;10426;49.420;8.390;2023-07-31T07:25:16;2.72;;;1.80;;
20535;SDS011;10426;49.420;8.390;2023-07-31T07:27:44;3.40;;;2.20;;
20535;SDS011;10426;49.420;8.390;2023-07-31T07:30:11;3.75;;;2.03;;
20535;SDS011;10426;49.420;8.390;2023-07-31T07:32:37;2.35;;;1.90;;
20535;SDS011;10426;49.420;8.390;2023-07-31T07:35:05;3.00;;;1.80;;
20535;SDS011;10426;49.420;8.390;2023-07-31T07:37:31;4.30;;;2.10;;
20535;SDS011;10426;49.420;8.390;2023-07-31T07:39:59;4.37;;;2.03;;
20535;SDS011;10426;49.420;8.390;2023-07-31T07:42:26;6.97;;;1.98;;
20535;SDS011;10426;49.420;8.390;2023-07-31T07:44:53;3.27;;;2.00;;
20535;SDS011;10426;49.420;8.390;2023-07-31T07:47:20;2.70;;;2.00;;
20535;SDS011;10426;49.420;8.390;2023-07-31T07:49:47;3.22;;;1.83;;
20535;SDS011;10426;49.420;8.390;2023-07-31T07:52:14;4.40;;;2.13;;
20535;SDS011;10426;49.420;8.390;2023-07-31T07:54:41;3.15;;;2.03;;
20535;SDS011;10426;49.420;8.390;2023-07-31T07:57:07;3.17;;;1.90;;
20535;SDS011;10426;49.420;8.390;2023-07-31T07:59:34;2.83;;;2.00;;
20535;SDS011;10426;49.420;8.390;2023-07-31T08:02:02;7.05;;;2.25;;
20535;SDS011;10426;49.420;8.390;2023-07-31T08:04:28;3.45;;;2.05;;
20535;SDS011;10426;49.420;8.390;2023-07-31T08:06:55;2.50;;;2.30;;
20535;SDS011;10426;49.420;8.390;2023-07-31T08:09:22;3.58;;;2.30;;
20535;SDS011;10426;49.420;8.390;2023-07-31T08:11:48;3.73;;;2.00;;
20535;SDS011;10426;49.420;8.390;2023-07-31T08:14:15;5.40;;;2.00;;
20535;SDS011;10426;49.420;8.390;2023-07-31T08:16:42;3.72;;;2.08;;
20535;SDS011;10426;49.420;8.390;2023-07-31T08:19:11;3.30;;;1.92;;
20535;SDS011;10426;49.420;8.390;2023-07-31T08:21:37;3.83;;;1.90;;
20535;SDS011;10426;49.420;8.390;2023-07-31T08:24:04;1.98;;;1.77;;
20535;SDS011;10426;49.420;8.390;2023-07-31T08:26:31;5.32;;;2.38;;
20535;SDS011;10426;49.420;8.390;2023-07-31T08:28:57;3.60;;;1.80;;
20535;SDS011;10426;49.420;8.390;2023-07-31T08:31:24;2.83;;;2.00;;
20535;SDS011;10426;49.420;8.390;2023-07-31T08:33:52;3.35;;;2.00;;
20535;SDS011;10426;49.420;8.390;2023-07-31T08:36:20;2.53;;;1.83;;
20535;SDS011;10426;49.420;8.390;2023-07-31T08:38:46;4.00;;;2.00;;
20535;SDS011;10426;49.420;8.390;2023-07-31T08:41:13;3.78;;;2.20;;
20535;SDS011;10426;49.420;8.390;2023-07-31T08:43:42;2.80;;;1.80;;
20535;SDS011;10426;49.420;8.390;2023-07-31T08:46:09;2.47;;;2.00;;
20535;SDS011;10426;49.420;8.390;2023-07-31T08:48:35;3.80;;;1.85;;
20535;SDS011;10426;49.420;8.390;2023-07-31T08:51:03;3.80;;;2.28;;
20535;SDS011;10426;49.420;8.390;2023-07-31T08:53:31;2.53;;;1.80;;
20535;SDS011;10426;49.420;8.390;2023-07-31T08:55:58;2.45;;;2.05;;
20535;SDS011;10426;49.420;8.390;2023-07-31T08:58:25;3.67;;;2.13;;
20535;SDS011;10426;49.420;8.390;2023-07-31T09:00:53;3.85;;;1.88;;
20535;SDS011;10426;49.420;8.390;2023-07-31T09:03:21;3.72;;;2.10;;
20535;SDS011;10426;49.420;8.390;2023-07-31T09:05:49;3.83;;;2.13;;
20535;SDS011;10426;49.420;8.390;2023-07-31T09:08:17;2.97;;;2.10;;
20535;SDS011;10426;49.420;8.390;2023-07-31T09:10:46;2.10;;;1.90;;
20535;SDS011;10426;49.420;8.390;2023-07-31T09:13:12;2.53;;;2.00;;
20535;SDS011;10426;49.420;8.390;2023-07-31T09:15:39;3.42;;;2.20;;
20535;SDS011;10426;49.420;8.390;2023-07-31T09:18:07;3.72;;;1.90;;
20535;SDS011;10426;49.420;8.390;2023-07-31T09:20:34;3.20;;;2.00;;
20535;SDS011;10426;49.420;8.390;2023-07-31T09:23:07;2.63;;;2.05;;
20535;SDS011;10426;49.420;8.390;2023-07-31T09:25:34;5.05;;;2.08;;
20535;SDS011;10426;49.420;8.390;2023-07-31T09:28:03;4.20;;;2.15;;
20535;SDS011;10426;49.420;8.390;2023-07-31T09:30:30;3.90;;;2.00;;
20535;SDS011;10426;49.420;8.390;2023-07-31T09:33:00;4.57;;;2.20;;
20535;SDS011;10426;49.420;8.390;2023-07-31T09:35:27;4.47;;;2.10;;
20535;SDS011;10426;49.420;8.390;2023-07-31T09:37:55;3.03;;;2.08;;
20535;SDS011;10426;49.420;8.390;2023-07-31T09:40:25;3.50;;;2.07;;
20535;SDS011;10426;49.420;8.390;2023-07-31T09:42:52;4.20;;;2.25;;
20535;SDS011;10426;49.420;8.390;2023-07-31T09:45:20;3.35;;;2.13;;
20535;SDS011;10426;49.420;8.390;2023-07-31T09:47:47;3.97;;;2.20;;
20535;SDS011;10426;49.420;8.390;2023-07-31T09:50:14;3.58;;;2.40;;
20535;SDS011;10426;49.420;8.390;2023-07-31T09:52:41;4.18;;;2.30;;
20535;SDS011;10426;49.420;8.390;2023-07-31T09:55:08;3.85;;;2.20;;
20535;SDS011;10426;49.420;8.390;2023-07-31T09:57:35;3.83;;;2.50;;
20535;SDS011;10426;49.420;8.390;2023-07-31T10:00:03;4.47;;;2.17;;
20535;SDS011;10426;49.420;8.390;2023-07-31T10:02:31;3.92;;;2.28;;
20535;SDS011;10426;49.420;8.390;2023-07-31T10:04:59;2.88;;;2.30;;
20535;SDS011;10426;49.420;8.390;2023-07-31T10:07:28;3.93;;;2.20;;
20535;SDS011;10426;49.420;8.390;2023-07-31T10:09:56;3.85;;;2.30;;
20535;SDS011;10426;49.420;8.390;2023-07-31T10:12:24;4.13;;;2.33;;
20535;SDS011;10426;49.420;8.390;2023-07-31T10:14:52;5.53;;;2.60;;
20535;SDS011;10426;49.420;8.390;2023-07-31T10:17:18;5.30;;;2.30;;
20535;SDS011;10426;49.420;8.390;2023-07-31T10:19:47;5.50;;;2.50;;
20535;SDS011;10426;49.420;8.390;2023-07-31T10:22:14;3.58;;;2.35;;
20535;SDS011;10426;49.420;8.390;2023-07-31T10:24:41;3.28;;;2.15;;
20535;SDS011;10426;49.420;8.390;2023-07-31T10:27:08;2.43;;;2.20;;
20535;SDS011;10426;49.420;8.390;2023-07-31T10:29:36;4.00;;;2.50;;
20535;SDS011;10426;49.420;8.390;2023-07-31T10:32:03;5.10;;;2.30;;
20535;SDS011;10426;49.420;8.390;2023-07-31T10:34:32;4.95;;;2.40;;
20535;SDS011;10426;49.420;8.390;2023-07-31T10:37:20;4.45;;;2.63;;
20535;SDS011;10426;49.420;8.390;2023-07-31T10:39:54;3.28;;;2.38;;
20535;SDS011;10426;49.420;8.390;2023-07-31T10:42:26;3.60;;;2.28;;
20535;SDS011;10426;49.420;8.390;2023-07-31T10:44:55;2.92;;;2.45;;
20535;SDS011;10426;49.420;8.390;2023-07-31T10:47:22;7.65;;;2.60;;
20535;SDS011;10426;49.420;8.390;2023-07-31T10:49:49;3.73;;;2.43;;
20535;SDS011;10426;49.420;8.390;2023-07-31T10:52:19;3.75;;;2.30;;
20535;SDS011;10426;49.420;8.390;2023-07-31T10:54:49;7.25;;;2.65;;
20535;SDS011;10426;49.420;8.390;2023-07-31T10:57:19;5.00;;;2.50;;
20535;SDS011;10426;49.420;8.390;2023-07-31T10:59:46;3.50;;;2.45;;
20535;SDS011;10426;49.420;8.390;2023-07-31T11:02:23;7.47;;;2.40;;
20535;SDS011;10426;49.420;8.390;2023-07-31T11:05:05;2.95;;;2.35;;
20535;SDS011;10426;49.420;8.390;2023-07-31T11:07:45;3.92;;;2.55;;
20535;SDS011;10426;49.420;8.390;2023-07-31T11:10:16;5.90;;;2.63;;
20535;SDS011;10426;49.420;8.390;2023-07-31T11:12:44;4.63;;;2.53;;
20535;SDS011;10426;49.420;8.390;2023-07-31T11:15:11;4.85;;;2.40;;
20535;SDS011;10426;49.420;8.390;2023-07-31T11:17:38;5.00;;;2.45;;
20535;SDS011;10426;49.420;8.390;2023-07-31T11:20:05;2.78;;;2.20;;
20535;SDS011;10426;49.420;8.390;2023-07-31T11:22:32;4.13;;;2.60;;
20535;SDS011;10426;49.420;8.390;2023-07-31T11:25:00;3.00;;;2.35;;
20535;SDS011;10426;49.420;8.390;2023-07-31T11:27:29;3.95;;;2.35;;
20535;SDS011;10426;49.420;8.390;2023-07-31T11:29:59;3.00;;;2.38;;
20535;SDS011;10426;49.420;8.390;2023-07-31T11:32:26;3.22;;;2.25;;
20535;SDS011;10426;49.420;8.390;2023-07-31T11:34:53;3.10;;;2.17;;
20535;SDS011;10426;49.420;8.390;2023-07-31T11:37:19;4.57;;;2.60;;
20535;SDS011;10426;49.420;8.390;2023-07-31T11:39:57;4.97;;;2.80;;
20535;SDS011;10426;49.420;8.390;2023-07-31T11:42:24;6.13;;;2.50;;
20535;SDS011;10426;49.420;8.390;2023-07-31T11:44:52;2.78;;;2.30;;
20535;SDS011;10426;49.420;8.390;2023-07-31T11:47:19;4.53;;;2.72;;
20535;SDS011;10426;49.420;8.390;2023-07-31T11:49:46;4.30;;;2.55;;
20535;SDS011;10426;49.420;8.390;2023-07-31T11:52:14;4.22;;;2.00;;
20535;SDS011;10426;49.420;8.390;2023-07-31T11:54:41;3.25;;;2.50;;
20535;SDS011;10426;49.420;8.390;2023-07-31T11:57:08;3.80;;;2.45;;
20535;SDS011;10426;49.420;8.390;2023-07-31T11:59:34;3.30;;;2.40;;
20535;SDS011;10426;49.420;8.390;2023-07-31T12:02:03;4.93;;;2.47;;
20535;SDS011;10426;49.420;8.390;2023-07-31T12:04:30;3.50;;;2.25;;
20535;SDS011;10426;49.420;8.390;2023-07-31T12:06:57;3.92;;;2.20;;
20535;SDS011;10426;49.420;8.390;2023-07-31T12:09:26;2.90;;;2.20;;
20535;SDS011;10426;49.420;8.390;2023-07-31T12:11:53;4.85;;;2.75;;
20535;SDS011;10426;49.420;8.390;2023-07-31T12:14:20;3.42;;;2.10;;
20535;SDS011;10426;49.420;8.390;2023-07-31T12:16:46;3.10;;;2.23;;
20535;SDS011;10426;49.420;8.390;2023-07-31T12:19:14;8.10;;;2.35;;
20535;SDS011;10426;49.420;8.390;2023-07-31T12:21:41;5.90;;;2.30;;
20535;SDS011;10426;49.420;8.390;2023-07-31T12:24:08;2.67;;;2.30;;
20535;SDS011;10426;49.420;8.390;2023-07-31T12:26:34;5.55;;;2.33;;
20535;SDS011;10426;49.420;8.390;2023-07-31T12:29:01;5.80;;;2.97;;
20535;SDS011;10426;49.420;8.390;2023-07-31T12:31:28;6.80;;;2.63;;
20535;SDS011;10426;49.420;8.390;2023-07-31T12:33:55;5.00;;;2.47;;
20535;SDS011;10426;49.420;8.390;2023-07-31T12:36:23;4.18;;;2.38;;
20535;SDS011;10426;49.420;8.390;2023-07-31T12:38:50;2.85;;;2.28;;
20535;SDS011;10426;49.420;8.390;2023-07-31T12:41:17;2.50;;;2.30;;
20535;SDS011;10426;49.420;8.390;2023-07-31T12:43:44;3.70;;;2.30;;
20535;SDS011;10426;49.420;8.390;2023-07-31T12:46:11;2.67;;;2.30;;
20535;SDS011;10426;49.420;8.390;2023-07-31T12:48:38;4.38;;;2.30;;
20535;SDS011;10426;49.420;8.390;2023-07-31T12:51:05;2.70;;;2.10;;
20535;SDS011;10426;49.420;8.390;2023-07-31T12:53:34;3.60;;;2.13;;
20535;SDS011;10426;49.420;8.390;2023-07-31T12:56:01;2.35;;;1.92;;
20535;SDS011;10426;49.420;8.390;2023-07-31T12:58:28;3.27;;;2.00;;
20535;SDS011;10426;49.420;8.390;2023-07-31T13:00:54;3.03;;;2.08;;
20535;SDS011;10426;49.420;8.390;2023-07-31T13:03:21;2.42;;;2.20;;
20535;SDS011;10426;49.420;8.390;2023-07-31T13:05:48;3.13;;;2.00;;
20535;SDS011;10426;49.420;8.390;2023-07-31T13:08:15;4.10;;;1.92;;
20535;SDS011;10426;49.420;8.390;2023-07-31T13:10:44;3.23;;;2.20;;
20535;SDS011;10426;49.420;8.390;2023-07-31T13:13:10;3.40;;;2.20;;
20535;SDS011;10426;49.420;8.390;2023-07-31T13:15:37;2.35;;;2.10;;
20535;SDS011;10426;49.420;8.390;2023-07-31T13:18:04;2.22;;;2.03;;
20535;SDS011;10426;49.420;8.390;2023-07-31T13:20:30;2.57;;;2.30;;
20535;SDS011;10426;49.420;8.390;2023-07-31T13:22:57;2.38;;;2.10;;
20535;SDS011;10426;49.420;8.390;2023-07-31T13:25:24;4.13;;;2.38;;
20535;SDS011;10426;49.420;8.390;2023-07-31T13:27:52;4.28;;;2.35;;
20535;SDS011;10426;49.420;8.390;2023-07-31T13:30:18;3.63;;;2.20;;
20535;SDS011;10426;49.420;8.390;2023-07-31T13:32:45;3.80;;;2.38;;
20535;SDS011;10426;49.420;8.390;2023-07-31T13:35:12;4.82;;;2.20;;
20535;SDS011;10426;49.420;8.390;2023-07-31T13:37:38;3.50;;;2.33;;
20535;SDS011;10426;49.420;8.390;2023-07-31T13:40:05;6.63;;;2.30;;
20535;SDS011;10426;49.420;8.390;2023-07-31T13:42:32;3.30;;;2.45;;
20535;SDS011;10426;49.420;8.390;2023-07-31T13:45:00;3.10;;;2.10;;
20535;SDS011;10426;49.420;8.390;2023-07-31T13:47:27;2.53;;;2.33;;
20535;SDS011;10426;49.420;8.390;2023-07-31T13:49:53;3.10;;;2.20;;
20535;SDS011;10426;49.420;8.390;2023-07-31T13:52:20;3.28;;;2.15;;
20535;SDS011;10426;49.420;8.390;2023-07-31T13:54:47;3.20;;;2.30;;
20535;SDS011;10426;49.420;8.390;2023-07-31T13:57:13;3.35;;;2.53;;
20535;SDS011;10426;49.420;8.390;2023-07-31T13:59:40;3.25;;;2.30;;
20535;SDS011;10426;49.420;8.390;2023-07-31T14:02:08;2.97;;;2.50;;
20535;SDS011;10426;49.420;8.390;2023-07-31T14:04:35;6.45;;;2.45;;
20535;SDS011;10426;49.420;8.390;2023-07-31T14:07:02;2.20;;;2.00;;
20535;SDS011;10426;49.420;8.390;2023-07-31T14:09:29;5.00;;;2.33;;
20535;SDS011;10426;49.420;8.390;2023-07-31T14:11:56;5.13;;;2.33;;
20535;SDS011;10426;49.420;8.390;2023-07-31T14:14:23;4.67;;;2.50;;
20535;SDS011;10426;49.420;8.390;2023-07-31T14:16:49;4.53;;;2.20;;
20535;SDS011;10426;49.420;8.390;2023-07-31T14:19:18;3.35;;;2.40;;
20535;SDS011;10426;49.420;8.390;2023-07-31T14:21:44;4.30;;;2.58;;
20535;SDS011;10426;49.420;8.390;2023-07-31T14:24:11;4.88;;;2.47;;
20535;SDS011;10426;49.420;8.390;2023-07-31T14:26:37;2.25;;;2.03;;
20535;SDS011;10426;49.420;8.390;2023-07-31T14:29:04;3.10;;;2.30;;
20535;SDS011;10426;49.420;8.390;2023-07-31T14:31:31;2.90;;;2.15;;
20535;SDS011;10426;49.420;8.390;2023-07-31T14:33:57;4.27;;;2.37;;
20535;SDS011;10426;49.420;8.390;2023-07-31T14:36:25;2.65;;;2.25;;
20535;SDS011;10426;49.420;8.390;2023-07-31T14:38:52;3.55;;;2.30;;
20535;SDS011;10426;49.420;8.390;2023-07-31T14:41:19;4.40;;;2.70;;
20535;SDS011;10426;49.420;8.390;2023-07-31T14:43:45;3.17;;;2.28;;
20535;SDS011;10426;49.420;8.390;2023-07-31T14:46:12;2.53;;;2.20;;
20535;SDS011;10426;49.420;8.390;2023-07-31T14:48:40;3.70;;;2.30;;